createdAt,value
2019-02-18T00:54:00.314Z,28.20
2019-02-18T01:49:51.486Z,27.15
2019-02-18T01:52:49.717Z,27.65
2019-02-18T01:55:50.164Z,27.52
2019-02-18T01:58:40.060Z,27.20
2019-02-18T02:01:43.431Z,26.95
2019-02-18T02:05:13.949Z,25.90
2019-02-18T02:07:55.767Z,27.75
2019-02-18T02:10:38.885Z,26.73
2019-02-18T02:13:40.314Z,25.97
2019-02-18T02:16:40.732Z,25.82
2019-02-18T02:19:24.396Z,24.50
2019-02-18T02:22:42.676Z,26.12
2019-02-18T02:25:45.757Z,25.70
2019-02-18T02:28:35.417Z,23.70
2019-02-18T02:31:26.047Z,25.32
2019-02-18T02:34:16.118Z,23.07
2019-02-18T02:37:32.299Z,24.10
2019-02-18T02:41:16.532Z,14.07
2019-02-18T02:47:28.040Z,23.00
2019-02-18T02:50:30.365Z,20.30
2019-02-18T02:53:28.803Z,10.60
2019-02-18T02:56:11.037Z,18.57
2019-02-18T02:58:59.821Z,16.62
2019-02-18T03:02:22.588Z,20.62
2019-02-18T03:05:58.188Z,21.35
2019-02-18T03:08:43.968Z,21.00
2019-02-18T03:12:00.833Z,20.77
2019-02-18T03:21:40.886Z,21.60
2019-02-18T03:24:23.436Z,15.88
2019-02-18T03:27:06.228Z,22.20
2019-02-18T03:30:32.513Z,18.85
2019-02-18T03:33:11.087Z,16.80
2019-02-18T03:36:31.486Z,23.22
2019-02-18T03:39:18.664Z,18.48
2019-02-18T03:42:02.367Z,22.05
2019-02-18T03:44:40.104Z,22.90
2019-02-18T03:47:19.901Z,21.05
2019-02-18T03:49:59.095Z,7.58
2019-02-18T03:52:50.664Z,12.65
2019-02-18T03:55:43.581Z,18.48
2019-02-18T03:58:21.733Z,7.30
2019-02-18T04:00:55.124Z,20.55
2019-02-18T04:06:58.494Z,18.82
2019-02-18T04:10:19.925Z,17.77
2019-02-18T04:21:00.788Z,12.40
2019-02-18T04:27:29.641Z,17.95
2019-02-18T04:30:47.084Z,15.78
2019-02-18T04:55:16.457Z,13.75
2019-02-18T04:58:22.110Z,17.80
2019-02-18T05:05:25.494Z,22.67
2019-02-18T05:09:24.778Z,21.20
2019-02-18T05:19:44.106Z,11.40
2019-02-18T05:23:07.902Z,13.55
2019-02-18T05:26:26.143Z,17.67
2019-02-18T05:29:10.577Z,19.25
2019-02-18T05:32:12.199Z,17.90
2019-02-18T05:34:57.900Z,19.27
2019-02-18T05:37:46.392Z,10.53
2019-02-18T05:41:23.334Z,20.23
2019-02-18T05:44:53.465Z,17.73
2019-02-18T05:47:47.791Z,20.43
2019-02-18T05:50:49.354Z,19.57
2019-02-18T05:53:43.367Z,22.52
2019-02-18T05:57:04.884Z,15.05
2019-02-18T05:59:41.581Z,18.20
2019-02-18T06:03:45.291Z,12.25
2019-02-18T06:06:24.206Z,21.82
2019-02-18T06:09:12.658Z,9.83
2019-02-18T06:11:59.203Z,16.75
2019-02-18T06:15:08.611Z,22.25
2019-02-18T06:21:19.903Z,20.60
2019-02-18T06:24:03.066Z,14.55
2019-02-18T06:26:42.632Z,8.83
2019-02-18T06:29:30.055Z,13.13
2019-02-18T06:32:35.825Z,16.65
2019-02-18T06:35:09.000Z,16.82
2019-02-18T06:37:50.275Z,16.57
2019-02-18T06:41:07.823Z,18.30
2019-02-18T06:43:44.923Z,15.25
2019-02-18T06:46:38.666Z,17.45
2019-02-18T06:49:21.282Z,10.32
2019-02-18T06:52:17.067Z,16.90
2019-02-18T06:55:00.004Z,23.73
2019-02-18T06:57:55.466Z,17.98
2019-02-18T07:00:44.213Z,12.23
2019-02-18T07:03:46.738Z,13.48
2019-02-18T07:07:01.806Z,10.13
2019-02-18T07:09:59.322Z,17.70
2019-02-18T07:12:51.713Z,22.60
2019-02-18T07:15:36.535Z,10.43
2019-02-18T07:18:20.465Z,11.20
2019-02-18T07:20:54.360Z,21.20
2019-02-18T07:26:57.517Z,12.40
2019-02-18T07:31:47.580Z,18.90
2019-02-18T07:34:24.146Z,19.87
2019-02-18T07:40:24.782Z,14.73
2019-02-18T07:40:26.535Z,11.05
2019-02-18T07:43:12.631Z,16.40
2019-02-18T07:46:31.219Z,20.05
2019-02-18T07:49:39.190Z,9.58
2019-02-18T07:52:57.517Z,11.00
2019-02-18T07:56:13.550Z,5.35
2019-02-18T08:05:35.546Z,18.52
2019-02-18T08:08:19.533Z,19.62
2019-02-18T08:11:46.396Z,16.62
2019-02-18T08:15:37.525Z,16.52
2019-02-18T08:22:34.395Z,8.13
2019-02-18T08:33:05.660Z,9.63
2019-02-18T09:00:45.307Z,11.90
2019-02-18T09:03:22.321Z,20.43
2019-02-18T09:06:19.473Z,21.57
2019-02-18T09:08:54.060Z,19.20
2019-02-18T09:11:29.396Z,20.23
2019-02-18T09:14:02.219Z,23.35
2019-02-18T09:16:35.936Z,24.10
2019-02-18T09:19:08.943Z,20.20
2019-02-18T09:21:40.650Z,15.20
2019-02-18T09:24:19.878Z,22.90
2019-02-18T09:26:51.221Z,21.23
2019-02-18T09:29:23.007Z,20.60
2019-02-18T09:31:54.828Z,15.48
2019-02-18T09:34:27.425Z,17.82
2019-02-18T09:36:59.106Z,20.15
2019-02-18T09:39:31.628Z,11.70
2019-02-18T09:42:07.094Z,19.50
2019-02-18T09:44:40.121Z,19.20
2019-02-18T09:47:12.856Z,17.55
2019-02-18T09:49:51.453Z,17.65
2019-02-18T09:52:26.684Z,15.23
2019-02-18T09:54:59.196Z,14.60
2019-02-18T09:57:35.480Z,15.32
2019-02-18T10:00:23.694Z,15.83
2019-02-18T10:03:11.440Z,19.05
2019-02-18T10:05:59.003Z,23.40
2019-02-18T10:08:33.306Z,22.67
2019-02-18T10:11:06.006Z,14.20
2019-02-18T10:13:39.418Z,14.47
2019-02-18T10:16:13.559Z,13.88
2019-02-18T10:19:04.946Z,17.25
2019-02-18T10:21:37.404Z,20.62
2019-02-18T10:24:11.036Z,10.48
2019-02-18T10:26:43.870Z,12.65
2019-02-18T10:29:16.159Z,21.05
2019-02-18T10:31:50.165Z,7.67
2019-02-18T10:34:29.706Z,14.18
2019-02-18T10:37:02.830Z,21.05
2019-02-18T10:39:37.116Z,22.95
2019-02-18T10:42:11.022Z,13.38
2019-02-18T10:44:48.559Z,22.15
2019-02-18T10:47:21.342Z,21.77
2019-02-18T10:49:54.966Z,17.10
2019-02-18T10:52:27.700Z,12.58
2019-02-18T10:55:44.405Z,21.20
2019-02-18T10:59:03.123Z,14.30
2019-02-18T11:01:40.379Z,20.80
2019-02-18T11:04:14.163Z,13.85
2019-02-18T11:10:08.181Z,19.55
2019-02-18T11:12:43.970Z,20.45
2019-02-18T11:15:31.772Z,19.40
2019-02-18T11:18:05.710Z,9.98
2019-02-18T11:20:41.727Z,18.23
2019-02-18T11:23:14.056Z,19.02
2019-02-18T11:25:47.697Z,14.60
2019-02-18T11:28:23.831Z,20.30
2019-02-18T11:34:15.104Z,19.32
2019-02-18T11:36:59.098Z,19.75
2019-02-18T11:39:56.338Z,14.90
2019-02-18T11:42:29.977Z,18.20
2019-02-18T11:45:03.699Z,16.07
2019-02-18T11:47:36.642Z,18.27
2019-02-18T11:50:11.707Z,17.45
2019-02-18T11:52:45.227Z,8.80
2019-02-18T11:55:19.524Z,14.70
2019-02-18T11:57:59.919Z,14.75
2019-02-18T12:00:32.468Z,13.88
2019-02-18T12:03:45.456Z,17.07
2019-02-18T12:06:27.432Z,8.15
2019-02-18T12:09:07.308Z,11.53
2019-02-18T12:11:56.161Z,12.10
2019-02-18T12:14:40.475Z,15.70
2019-02-18T12:17:20.295Z,10.38
2019-02-18T12:20:13.461Z,10.08
2019-02-18T12:22:48.210Z,6.47
2019-02-18T12:25:46.667Z,11.65
2019-02-18T12:28:08.057Z,13.75
2019-02-18T12:30:41.481Z,15.35
2019-02-18T12:33:16.833Z,9.95
2019-02-18T12:36:00.358Z,10.60
2019-02-18T12:38:41.151Z,11.70
2019-02-18T12:41:13.946Z,7.60
2019-02-18T12:43:49.870Z,10.08
2019-02-18T12:46:32.205Z,9.20
2019-02-18T12:49:07.101Z,12.68
2019-02-18T12:52:12.029Z,7.17
2019-02-18T12:54:45.052Z,7.17
2019-02-18T12:57:22.076Z,6.70
2019-02-18T13:00:24.639Z,8.15
2019-02-18T13:03:06.547Z,11.43
2019-02-18T13:05:45.528Z,12.13
2019-02-18T13:08:35.105Z,7.67
2019-02-18T13:11:27.830Z,9.47
2019-02-18T13:14:12.059Z,11.80
2019-02-18T13:16:50.219Z,10.10
2019-02-18T13:19:30.257Z,13.05
2019-02-18T13:22:04.140Z,13.65
2019-02-18T13:24:47.053Z,13.18
2019-02-18T13:27:21.245Z,13.30
2019-02-18T13:30:18.350Z,14.07
2019-02-18T13:33:00.693Z,7.60
2019-02-18T13:35:41.844Z,9.03
2019-02-18T13:38:17.657Z,12.23
2019-02-18T13:41:03.848Z,8.25
2019-02-18T13:43:38.674Z,13.08
2019-02-18T13:46:19.669Z,12.63
2019-02-18T13:48:57.821Z,10.98
2019-02-18T13:51:46.931Z,13.85
2019-02-18T13:54:25.646Z,10.95
2019-02-18T14:00:22.993Z,9.35
2019-02-18T14:03:01.024Z,14.40
2019-02-18T14:05:39.080Z,10.78
2019-02-18T14:08:23.968Z,13.13
2019-02-18T14:11:48.981Z,8.73
2019-02-18T14:14:36.884Z,5.97
2019-02-18T14:17:35.493Z,11.80
2019-02-18T14:20:14.231Z,11.88
2019-02-18T14:23:48.390Z,12.98
2019-02-18T14:26:22.785Z,11.60
2019-02-18T14:28:55.341Z,11.93
2019-02-18T14:31:27.857Z,11.18
2019-02-18T14:34:21.704Z,12.45
2019-02-18T14:36:58.779Z,12.80
2019-02-18T14:39:35.364Z,10.40
2019-02-18T14:42:07.614Z,9.95
2019-02-18T14:44:49.248Z,7.00
2019-02-18T14:47:47.115Z,10.45
2019-02-18T14:50:22.923Z,12.23
2019-02-18T14:53:17.254Z,9.93
2019-02-18T14:55:49.488Z,11.40
2019-02-18T14:58:24.379Z,13.38
2019-02-18T15:00:58.063Z,12.07
2019-02-18T15:03:31.371Z,12.10
2019-02-18T15:06:07.614Z,10.78
2019-02-18T15:08:49.477Z,13.00
2019-02-18T15:11:36.718Z,12.68
2019-02-18T15:14:21.214Z,12.60
2019-02-18T15:16:59.311Z,12.85
2019-02-18T15:19:32.118Z,12.95
2019-02-18T15:22:24.260Z,13.93
2019-02-18T15:24:58.898Z,13.15
2019-02-18T15:27:31.589Z,12.88
2019-02-18T15:30:03.898Z,11.53
2019-02-18T15:32:39.369Z,15.03
2019-02-18T15:35:16.517Z,13.32
2019-02-18T15:37:55.255Z,11.93
2019-02-18T15:40:31.365Z,12.63
2019-02-18T15:43:03.400Z,11.12
2019-02-18T15:45:35.992Z,14.15
2019-02-18T15:48:11.329Z,14.47
2019-02-18T15:51:04.274Z,14.30
2019-02-18T15:53:38.717Z,14.63
2019-02-18T15:56:14.640Z,12.25
2019-02-18T15:59:07.450Z,15.23
2019-02-18T16:01:41.165Z,15.72
2019-02-18T16:04:26.795Z,11.95
2019-02-18T16:07:03.359Z,16.10
2019-02-18T16:09:44.256Z,17.62
2019-02-18T16:12:23.114Z,17.80
2019-02-18T16:14:56.440Z,17.92
2019-02-18T16:17:34.159Z,19.07
2019-02-18T16:20:34.510Z,16.85
2019-02-18T16:29:25.821Z,18.48
2019-02-18T16:32:01.707Z,20.43
2019-02-18T16:34:38.353Z,20.82
2019-02-18T16:37:18.759Z,19.07
2019-02-18T16:40:00.968Z,19.52
2019-02-18T16:42:35.238Z,19.67
2019-02-18T16:45:12.218Z,18.25
2019-02-18T16:47:47.367Z,19.65
2019-02-18T16:50:21.251Z,21.50
2019-02-18T16:53:00.856Z,20.97
2019-02-18T16:55:49.771Z,18.75
2019-02-18T16:58:29.218Z,18.92
2019-02-18T17:01:13.856Z,20.17
2019-02-18T17:04:27.356Z,19.60
2019-02-18T17:07:11.166Z,19.95
2019-02-18T17:09:55.592Z,20.72
2019-02-18T17:12:36.540Z,19.48
2019-02-18T17:15:34.508Z,22.35
2019-02-18T17:18:14.451Z,22.45
2019-02-18T17:20:59.569Z,24.70
2019-02-18T17:23:41.259Z,24.65
2019-02-18T17:26:28.145Z,26.30
2019-02-18T17:29:27.015Z,25.12
2019-02-18T17:32:14.430Z,24.60
2019-02-18T17:35:08.422Z,27.15
2019-02-18T17:38:15.168Z,26.40
2019-02-18T17:44:38.341Z,25.88
2019-02-18T17:47:25.570Z,25.48
2019-02-18T17:50:07.383Z,25.27
2019-02-18T17:52:42.990Z,22.55
2019-02-18T17:55:16.014Z,24.55
2019-02-18T17:57:48.530Z,25.72
2019-02-18T18:00:34.574Z,26.85
2019-02-18T18:03:27.358Z,24.87
2019-02-18T18:19:44.073Z,25.27
2019-02-18T18:32:02.201Z,24.70
2019-02-18T18:33:19.595Z,25.23
2019-02-18T19:10:54.189Z,26.33
2019-02-18T19:20:35.692Z,29.00
2019-02-18T20:03:53.668Z,31.30
2019-02-18T20:14:13.042Z,25.82
2019-02-18T20:34:43.003Z,25.20
2019-02-18T20:54:37.697Z,25.00
2019-02-18T21:37:34.307Z,12.85
2019-02-18T21:46:20.325Z,19.48
